In Rescue
 
Open Full Screen Window  High Contrast Mode
April 02, 2020 11:59 PM EDT
Weather Information
Wind Direction
  ---
Wind Speed
  00 kt (0 mph)
Wind Gust
  00 kt (0 mph)
Altimeter
30.13 in
Visibility
10 SM
Temperature
-01° C
30° F
Dewpoint
-07° C
19° F
Humidity
64%
1hr Rain Fall
00.00 in.
24hr Rain Fall
00.00 in.
Sky Condition
Clear
VFR

METAR KERY 030359Z AUTO 00000KT 10SM CLR M01/M07 A3013 RMK AO2 T10111072

FAA Disclaimer: The data displayed is for advisory purposes only and is not to be used for flight planning or operations.